Time;durP1;ratioP1;P1;durP2;ratioP2;P2;SDS_P1;SDS_P2;PMS_P1;PMS_P2;Temp;Humidity;BMP_temperature;BMP_pressure;BME280_temperature;BME280_humidity;BME280_pressure;Samples;Min_cycle;Max_cycle;Signal;HPM_P1;HPM_P2
2022/08/22 00:00:45;;;;;;;;;;;;;;;;;;6094618;23;7169;-85
2022/08/22 00:03:29;;;;;;;;;;;;;;;;;;6070282;23;6962;-86
2022/08/22 00:06:10;;;;;;;;;;;;;;;;;;6069293;23;8358;-85
2022/08/22 00:08:38;;;;;;;;;;;;;;;;;;6093509;23;8407;-84
2022/08/22 00:11:24;;;;;;;;;;;;;;;;;;6069438;23;8402;-86
2022/08/22 00:14:00;;;;;;;;;;;;;;;;;;6069350;23;7096;-85
2022/08/22 00:16:35;;;;;;;;;;;;;;;;;;6093585;23;7083;-85
2022/08/22 00:19:11;;;;;;;;;;;;;;;;;;6093573;23;8836;-86
2022/08/22 00:21:46;;;;;;;;;;;;;;;;;;6069355;23;7141;-84
2022/08/22 00:24:23;;;;;;;;;;;;;;;;;;6093492;23;8423;-85
2022/08/22 00:26:54;;;;;;;;;;;;;;;;;;6093867;23;7042;-85
2022/08/22 00:29:26;;;;;;;;;;;;;;;;;;6094112;23;8674;-85
2022/08/22 00:32:09;;;;;;;;;;;;;;;;;;6093265;23;8550;-85
2022/08/22 00:34:57;;;;;;;;;;;;;;;;;;6094674;23;7162;-84
2022/08/22 00:37:43;;;;;;;;;;;;;;;;;;6093372;23;6889;-85
2022/08/22 00:40:21;;;;;;;;;;;;;;;;;;6093974;23;8728;-85
2022/08/22 00:43:14;;;;;;;;;;;;;;;;;;6070302;23;8485;-85
2022/08/22 00:45:42;;;;;;;;;;;;;;;;;;6095861;23;8951;-83
2022/08/22 00:48:38;;;;;;;;;;;;;;;;;;6071388;23;8673;-85
2022/08/22 00:51:28;;;;;;;;;;;;;;;;;;6093208;23;6836;-85
2022/08/22 00:53:59;;;;;;;;;;;;;;;;;;6016412;23;7435;-85
2022/08/22 00:56:25;;;;;;;;;;;;;;;;;;6069391;23;8364;-85
2022/08/22 00:58:53;;;;;;;;;;;;;;;;;;6069241;23;8398;-85
2022/08/22 01:01:26;;;;;;;;;;;;;;;;;;6069425;23;7158;-85
2022/08/22 01:04:01;;;;;;;;;;;;;;;;;;6093982;23;8496;-85
2022/08/22 01:06:29;;;;;;;;;;;;;;;;;;6093251;23;8379;-85
2022/08/22 01:08:55;;;;;;;;;;;;;;;;;;6069561;23;8406;-85
2022/08/22 01:11:21;;;;;;;;;;;;;;;;;;6069051;23;8446;-86
2022/08/22 01:13:53;;;;;;;;;;;;;;;;;;6069160;23;7043;-85
2022/08/22 01:16:33;;;;;;;;;;;;;;;;;;6068901;23;8634;-85
2022/08/22 01:19:25;;;;;;;;;;;;;;;;;;6068927;23;8439;-85
2022/08/22 01:22:09;;;;;;;;;;;;;;;;;;6093241;23;6913;-85
2022/08/22 01:27:57;;;;;;;;;;;;;;;;;;6070446;23;7373;-85
2022/08/22 01:30:31;;;;;;;;;;;;;;;;;;6069317;23;8595;-85
2022/08/22 01:33:29;;;;;;;;;;;;;;;;;;6069368;23;8716;-85
2022/08/22 01:35:54;;;;;;;;;;;;;;;;;;6093746;23;8430;-84
2022/08/22 01:38:20;;;;;;;;;;;;;;;;;;6069292;23;6984;-85
2022/08/22 01:41:06;;;;;;;;;;;;;;;;;;6068966;23;8473;-85
2022/08/22 01:43:50;;;;;;;;;;;;;;;;;;6093149;23;8489;-84
2022/08/22 01:46:24;;;;;;;;;;;;;;;;;;6068876;23;8437;-85
2022/08/22 01:49:11;;;;;;;;;;;;;;;;;;6069607;23;6813;-85
2022/08/22 01:51:52;;;;;;;;;;;;;;;;;;6068527;23;7166;-85
2022/08/22 01:54:28;;;;;;;;;;;;;;;;;;6093064;23;8757;-86
2022/08/22 01:57:00;;;;;;;;;;;;;;;;;;6093259;23;8402;-85
2022/08/22 01:59:38;;;;;;;;;;;;;;;;;;6093637;23;7039;-85
2022/08/22 02:02:04;;;;;;;;;;;;;;;;;;6094727;23;7312;-85
2022/08/22 02:04:48;;;;;;;;;;;;;;;;;;6070905;23;6968;-85
2022/08/22 02:07:19;;;;;;;;;;;;;;;;;;6070561;23;8795;-84
2022/08/22 02:10:00;;;;;;;;;;;;;;;;;;6095486;23;8447;-85
2022/08/22 02:12:31;;;;;;;;;;;;;;;;;;6071395;23;8567;-85
2022/08/22 02:15:05;;;;;;;;;;;;;;;;;;6068075;23;8399;-84
2022/08/22 02:17:34;;;;;;;;;;;;;;;;;;6041834;23;9183;-84
2022/08/22 02:20:17;;;;;;;;;;;;;;;;;;6041928;23;7020;-84
2022/08/22 02:22:58;;;;;;;;;;;;;;;;;;6043696;23;7100;-85
2022/08/22 02:25:31;;;;;;;;;;;;;;;;;;6017923;23;7138;-85
2022/08/22 02:28:08;;;;;;;;;;;;;;;;;;6042079;23;8709;-85
2022/08/22 02:30:55;;;;;;;;;;;;;;;;;;6042069;23;9109;-85
2022/08/22 02:33:29;;;;;;;;;;;;;;;;;;6042122;23;8778;-84
2022/08/22 02:36:00;;;;;;;;;;;;;;;;;;6041556;23;7045;-84
2022/08/22 02:38:35;;;;;;;;;;;;;;;;;;6041674;23;8569;-84
2022/08/22 02:41:19;;;;;;;;;;;;;;;;;;6041866;23;8617;-86
2022/08/22 02:44:05;;;;;;;;;;;;;;;;;;6017477;23;8646;-83
2022/08/22 02:46:37;;;;;;;;;;;;;;;;;;6040192;23;7559;-80
2022/08/22 02:49:03;;;;;;;;;;;;;;;;;;6017154;23;8892;-79
2022/08/22 02:51:44;;;;;;;;;;;;;;;;;;6017065;23;7110;-82
2022/08/22 02:54:17;;;;;;;;;;;;;;;;;;6041722;23;8306;-82
2022/08/22 02:56:51;;;;;;;;;;;;;;;;;;6041936;23;8650;-83
2022/08/22 02:59:26;;;;;;;;;;;;;;;;;;6041397;23;7203;-82
2022/08/22 03:01:54;;;;;;;;;;;;;;;;;;6017696;23;7185;-83
2022/08/22 03:04:20;;;;;;;;;;;;;;;;;;6042446;23;8726;-83
2022/08/22 03:07:04;;;;;;;;;;;;;;;;;;6017563;23;7196;-82
2022/08/22 03:09:35;;;;;;;;;;;;;;;;;;6017984;23;7029;-83
2022/08/22 03:12:10;;;;;;;;;;;;;;;;;;6041016;23;8373;-83
2022/08/22 03:14:55;;;;;;;;;;;;;;;;;;6017482;23;7000;-82
2022/08/22 03:17:25;;;;;;;;;;;;;;;;;;6046426;23;7165;-82
2022/08/22 03:20:14;;;;;;;;;;;;;;;;;;6069954;23;8425;-83
2022/08/22 03:22:46;;;;;;;;;;;;;;;;;;6069805;23;8798;-83
2022/08/22 03:25:19;;;;;;;;;;;;;;;;;;6045941;23;7029;-82
2022/08/22 03:27:54;;;;;;;;;;;;;;;;;;6070376;23;8401;-83
2022/08/22 03:30:22;;;;;;;;;;;;;;;;;;6045766;23;7132;-83
2022/08/22 03:32:54;;;;;;;;;;;;;;;;;;6070165;23;8396;-84
2022/08/22 03:35:51;;;;;;;;;;;;;;;;;;6069410;23;7022;-83
2022/08/22 03:38:20;;;;;;;;;;;;;;;;;;6069340;23;9355;-82
2022/08/22 03:41:04;;;;;;;;;;;;;;;;;;6046012;23;6988;-82
2022/08/22 03:43:45;;;;;;;;;;;;;;;;;;6046028;23;8411;-82
2022/08/22 03:46:13;;;;;;;;;;;;;;;;;;6069765;23;7227;-83
2022/08/22 03:48:54;;;;;;;;;;;;;;;;;;6046141;23;8611;-83
2022/08/22 03:51:32;;;;;;;;;;;;;;;;;;6046103;23;8390;-83
2022/08/22 03:53:57;;;;;;;;;;;;;;;;;;6045708;23;6986;-83
2022/08/22 03:56:39;;;;;;;;;;;;;;;;;;6045597;23;8492;-83
2022/08/22 03:59:05;;;;;;;;;;;;;;;;;;6069837;23;8556;-83
2022/08/22 04:01:30;;;;;;;;;;;;;;;;;;6045774;23;7001;-82
2022/08/22 04:04:15;;;;;;;;;;;;;;;;;;6045631;23;8348;-83
2022/08/22 04:06:43;;;;;;;;;;;;;;;;;;6069666;23;8383;-82
2022/08/22 04:09:42;;;;;;;;;;;;;;;;;;6045554;23;8811;-82
2022/08/22 04:12:12;;;;;;;;;;;;;;;;;;6069371;23;8389;-82
2022/08/22 04:14:56;;;;;;;;;;;;;;;;;;6046065;23;7038;-83
2022/08/22 04:17:28;;;;;;;;;;;;;;;;;;6018308;23;8669;-82
2022/08/22 04:20:02;;;;;;;;;;;;;;;;;;6040642;23;8711;-82
2022/08/22 04:22:32;;;;;;;;;;;;;;;;;;6041427;23;8870;-83
2022/08/22 04:25:03;;;;;;;;;;;;;;;;;;6041420;23;7138;-83
2022/08/22 04:27:41;;;;;;;;;;;;;;;;;;6039900;23;8439;-82
2022/08/22 04:30:18;;;;;;;;;;;;;;;;;;6041121;23;9198;-83
2022/08/22 04:32:49;;;;;;;;;;;;;;;;;;6040482;23;7499;-83
2022/08/22 04:35:18;;;;;;;;;;;;;;;;;;6040655;23;8375;-83
2022/08/22 04:37:50;;;;;;;;;;;;;;;;;;6040231;23;8620;-83
2022/08/22 04:40:22;;;;;;;;;;;;;;;;;;6040836;23;8429;-82
2022/08/22 04:42:57;;;;;;;;;;;;;;;;;;6033913;23;7149;-82
2022/08/22 04:45:29;;;;;;;;;;;;;;;;;;6038588;23;7017;-84
2022/08/22 04:48:11;;;;;;;;;;;;;;;;;;6039754;23;7856;-82
2022/08/22 04:50:39;;;;;;;;;;;;;;;;;;6038491;23;6992;-83
2022/08/22 04:53:13;;;;;;;;;;;;;;;;;;6038324;23;8397;-82
2022/08/22 04:55:50;;;;;;;;;;;;;;;;;;6040710;23;8401;-83
2022/08/22 04:58:29;;;;;;;;;;;;;;;;;;6040671;23;8565;-83
2022/08/22 05:00:54;;;;;;;;;;;;;;;;;;6040232;23;7024;-83
2022/08/22 05:03:24;;;;;;;;;;;;;;;;;;6041134;23;6984;-83
2022/08/22 05:05:53;;;;;;;;;;;;;;;;;;6040902;23;8456;-84
2022/08/22 05:08:24;;;;;;;;;;;;;;;;;;6041295;23;7136;-83
2022/08/22 05:10:51;;;;;;;;;;;;;;;;;;6040916;23;8700;-83
2022/08/22 05:13:29;;;;;;;;;;;;;;;;;;6040690;23;7020;-83
2022/08/22 05:15:58;;;;;;;;;;;;;;;;;;6063151;23;6813;-83
2022/08/22 05:18:23;;;;;;;;;;;;;;;;;;6093623;23;7175;-83
2022/08/22 05:20:52;;;;;;;;;;;;;;;;;;6070387;23;8388;-83
2022/08/22 05:23:23;;;;;;;;;;;;;;;;;;6096616;23;6813;-83
2022/08/22 05:25:54;;;;;;;;;;;;;;;;;;6096396;23;8413;-83
2022/08/22 05:28:28;;;;;;;;;;;;;;;;;;6093285;23;8424;-83
2022/08/22 05:30:55;;;;;;;;;;;;;;;;;;6093245;23;7228;-82
2022/08/22 05:33:20;;;;;;;;;;;;;;;;;;6093060;23;8403;-83
2022/08/22 05:35:53;;;;;;;;;;;;;;;;;;6070719;23;8711;-83
2022/08/22 05:38:24;;;;;;;;;;;;;;;;;;6095382;23;8326;-83
2022/08/22 05:40:57;;;;;;;;;;;;;;;;;;6094985;23;7019;-83
2022/08/22 05:43:24;;;;;;;;;;;;;;;;;;6070783;23;8395;-83
2022/08/22 05:45:55;;;;;;;;;;;;;;;;;;6095228;23;8509;-83
2022/08/22 05:48:32;;;;;;;;;;;;;;;;;;6094893;23;9950;-83
2022/08/22 05:51:07;;;;;;;;;;;;;;;;;;6094954;23;7175;-83
2022/08/22 05:53:39;;;;;;;;;;;;;;;;;;6094889;23;8632;-83
2022/08/22 05:56:13;;;;;;;;;;;;;;;;;;6094903;23;8422;-84
2022/08/22 05:58:41;;;;;;;;;;;;;;;;;;6070727;23;7243;-83
2022/08/22 06:01:07;;;;;;;;;;;;;;;;;;6071747;23;7111;-83
2022/08/22 06:03:38;;;;;;;;;;;;;;;;;;6070658;23;8393;-83
2022/08/22 06:06:10;;;;;;;;;;;;;;;;;;6095411;23;7166;-83
2022/08/22 06:08:43;;;;;;;;;;;;;;;;;;6070560;23;6809;-83
2022/08/22 06:11:27;;;;;;;;;;;;;;;;;;6094783;23;8376;-83
2022/08/22 06:14:04;;;;;;;;;;;;;;;;;;6095276;23;8417;-83
2022/08/22 06:16:50;;;;;;;;;;;;;;;;;;6094363;23;8398;-82
2022/08/22 06:19:18;;;;;;;;;;;;;;;;;;6069795;23;8517;-83
2022/08/22 06:21:47;;;;;;;;;;;;;;;;;;6094443;23;8401;-83
2022/08/22 06:24:19;;;;;;;;;;;;;;;;;;6094374;23;8979;-83
2022/08/22 06:26:49;;;;;;;;;;;;;;;;;;6094326;23;8318;-82
2022/08/22 06:29:21;;;;;;;;;;;;;;;;;;6094420;23;8783;-83
2022/08/22 06:31:48;;;;;;;;;;;;;;;;;;6094473;23;7261;-83
2022/08/22 06:34:21;;;;;;;;;;;;;;;;;;6094293;23;8414;-84
2022/08/22 06:36:49;;;;;;;;;;;;;;;;;;6094423;23;7244;-83
2022/08/22 06:39:23;;;;;;;;;;;;;;;;;;6094185;23;8437;-83
2022/08/22 06:42:12;;;;;;;;;;;;;;;;;;6094274;23;8396;-83
2022/08/22 06:44:43;;;;;;;;;;;;;;;;;;6055183;23;8365;-83
2022/08/22 06:47:14;;;;;;;;;;;;;;;;;;6094281;23;8364;-82
2022/08/22 06:49:42;;;;;;;;;;;;;;;;;;6094289;23;8476;-83
2022/08/22 06:52:12;;;;;;;;;;;;;;;;;;6094274;23;8438;-82
2022/08/22 06:54:43;;;;;;;;;;;;;;;;;;6046277;23;8692;-82
2022/08/22 06:57:27;;;;;;;;;;;;;;;;;;6095111;23;7051;-84
2022/08/22 06:59:55;;;;;;;;;;;;;;;;;;6094457;23;7254;-83
2022/08/22 07:02:24;;;;;;;;;;;;;;;;;;6094013;23;6828;-83
2022/08/22 07:04:50;;;;;;;;;;;;;;;;;;6070095;23;6886;-83
2022/08/22 07:07:18;;;;;;;;;;;;;;;;;;6094170;23;8424;-83
2022/08/22 07:09:49;;;;;;;;;;;;;;;;;;6094060;23;8411;-83
2022/08/22 07:12:18;;;;;;;;;;;;;;;;;;6093992;23;7037;-83
2022/08/22 07:14:49;;;;;;;;;;;;;;;;;;6094760;23;7022;-83
2022/08/22 07:17:21;;;;;;;;;;;;;;;;;;6093813;23;8434;-83
2022/08/22 07:20:07;;;;;;;;;;;;;;;;;;6094526;23;8561;-82
2022/08/22 07:22:36;;;;;;;;;;;;;;;;;;6069578;23;7351;-82
2022/08/22 07:25:15;;;;;;;;;;;;;;;;;;6093810;23;8900;-84
2022/08/22 07:28:03;;;;;;;;;;;;;;;;;;6094863;23;8716;-83
2022/08/22 07:31:04;;;;;;;;;;;;;;;;;;6054394;23;8435;-83
2022/08/22 07:33:39;;;;;;;;;;;;;;;;;;6093115;23;8307;-82
2022/08/22 07:36:24;;;;;;;;;;;;;;;;;;6070066;23;7008;-83
2022/08/22 07:38:56;;;;;;;;;;;;;;;;;;6093558;23;7437;-83
2022/08/22 07:41:25;;;;;;;;;;;;;;;;;;6064098;23;8563;-84
2022/08/22 07:43:56;;;;;;;;;;;;;;;;;;6092354;23;8674;-82
2022/08/22 07:46:21;;;;;;;;;;;;;;;;;;6092582;23;7153;-84
2022/08/22 07:49:02;;;;;;;;;;;;;;;;;;6068681;23;8383;-82
2022/08/22 07:51:34;;;;;;;;;;;;;;;;;;6092936;23;8761;-82
2022/08/22 07:54:09;;;;;;;;;;;;;;;;;;6092584;23;8862;-84
2022/08/22 07:56:41;;;;;;;;;;;;;;;;;;6092472;23;8410;-82
2022/08/22 07:59:16;;;;;;;;;;;;;;;;;;6092833;23;7028;-82
2022/08/22 08:01:45;;;;;;;;;;;;;;;;;;6092831;23;9124;-84
2022/08/22 08:04:14;;;;;;;;;;;;;;;;;;6092536;23;7050;-82
2022/08/22 08:06:40;;;;;;;;;;;;;;;;;;6092459;23;8425;-83
2022/08/22 08:09:14;;;;;;;;;;;;;;;;;;6092520;23;8752;-83
2022/08/22 08:11:42;;;;;;;;;;;;;;;;;;6092190;23;8487;-83
2022/08/22 08:14:11;;;;;;;;;;;;;;;;;;6092384;23;8746;-83
2022/08/22 08:17:00;;;;;;;;;;;;;;;;;;6092782;23;8519;-83
2022/08/22 08:19:28;;;;;;;;;;;;;;;;;;6091928;23;7154;-83
2022/08/22 08:21:55;;;;;;;;;;;;;;;;;;6092708;23;8482;-82
2022/08/22 08:24:26;;;;;;;;;;;;;;;;;;6092614;23;8492;-82
2022/08/22 08:29:45;;;;;;;;;;;;;;;;;;6069683;23;6990;-82
2022/08/22 08:32:12;;;;;;;;;;;;;;;;;;6092270;23;8891;-82
2022/08/22 08:34:42;;;;;;;;;;;;;;;;;;6091970;23;7040;-85
2022/08/22 08:37:19;;;;;;;;;;;;;;;;;;6092507;23;7034;-83
2022/08/22 08:39:56;;;;;;;;;;;;;;;;;;6092416;23;8424;-83
2022/08/22 08:42:30;;;;;;;;;;;;;;;;;;6092276;23;8711;-84
2022/08/22 08:45:15;;;;;;;;;;;;;;;;;;6068719;23;7156;-82
2022/08/22 08:48:06;;;;;;;;;;;;;;;;;;6067858;23;8534;-83
2022/08/22 08:50:50;;;;;;;;;;;;;;;;;;6068166;23;8507;-83
2022/08/22 08:53:16;;;;;;;;;;;;;;;;;;6068139;23;8411;-82
2022/08/22 08:55:49;;;;;;;;;;;;;;;;;;6067883;23;7003;-83
2022/08/22 08:58:32;;;;;;;;;;;;;;;;;;6092228;23;7261;-84
2022/08/22 09:01:11;;;;;;;;;;;;;;;;;;6092245;23;7387;-84
2022/08/22 09:03:39;;;;;;;;;;;;;;;;;;6092136;23;8603;-83
2022/08/22 09:06:19;;;;;;;;;;;;;;;;;;6068595;23;8390;-83
2022/08/22 09:08:56;;;;;;;;;;;;;;;;;;6093121;23;8411;-82
2022/08/22 09:11:45;;;;;;;;;;;;;;;;;;6094100;23;8759;-82
2022/08/22 09:14:13;;;;;;;;;;;;;;;;;;6094021;23;8443;-84
2022/08/22 09:16:41;;;;;;;;;;;;;;;;;;6069804;23;8325;-83
2022/08/22 09:19:09;;;;;;;;;;;;;;;;;;6069833;23;7072;-81
2022/08/22 09:21:47;;;;;;;;;;;;;;;;;;6069882;23;8625;-84
2022/08/22 09:24:21;;;;;;;;;;;;;;;;;;6069746;23;9758;-80
2022/08/22 09:26:51;;;;;;;;;;;;;;;;;;6069937;23;8406;-79
2022/08/22 09:29:32;;;;;;;;;;;;;;;;;;6094089;23;8511;-81
2022/08/22 09:31:58;;;;;;;;;;;;;;;;;;6093865;23;8583;-81
2022/08/22 09:34:49;;;;;;;;;;;;;;;;;;6070477;23;8413;-84
2022/08/22 09:37:30;;;;;;;;;;;;;;;;;;6064639;23;8595;-83
2022/08/22 09:39:59;;;;;;;;;;;;;;;;;;6069652;23;8823;-83
2022/08/22 09:42:28;;;;;;;;;;;;;;;;;;6069716;23;8566;-84
2022/08/22 09:45:12;;;;;;;;;;;;;;;;;;6069825;23;7042;-83
2022/08/22 09:47:49;;;;;;;;;;;;;;;;;;6069614;23;8456;-84
2022/08/22 09:50:29;;;;;;;;;;;;;;;;;;6094137;23;7185;-85
2022/08/22 09:53:24;;;;;;;;;;;;;;;;;;6093906;23;8836;-83
2022/08/22 09:55:59;;;;;;;;;;;;;;;;;;6045086;23;8400;-84
2022/08/22 09:58:36;;;;;;;;;;;;;;;;;;6093757;23;8503;-84
2022/08/22 10:01:24;;;;;;;;;;;;;;;;;;6094087;23;8791;-83
2022/08/22 10:04:08;;;;;;;;;;;;;;;;;;6093446;23;8402;-83
2022/08/22 10:06:51;;;;;;;;;;;;;;;;;;6070150;23;8466;-83
2022/08/22 10:09:43;;;;;;;;;;;;;;;;;;6093650;23;8377;-84
2022/08/22 10:12:15;;;;;;;;;;;;;;;;;;6025910;23;8413;-83
2022/08/22 10:14:40;;;;;;;;;;;;;;;;;;6093739;23;8751;-86
2022/08/22 10:17:05;;;;;;;;;;;;;;;;;;6068886;23;8407;-83
2022/08/22 10:19:38;;;;;;;;;;;;;;;;;;6069419;23;8408;-84
2022/08/22 10:22:13;;;;;;;;;;;;;;;;;;6093610;23;8425;-80
2022/08/22 10:25:04;;;;;;;;;;;;;;;;;;6068990;23;8998;-80
2022/08/22 10:27:55;;;;;;;;;;;;;;;;;;6093813;23;7177;-81
2022/08/22 10:30:26;;;;;;;;;;;;;;;;;;6093555;23;7113;-81
2022/08/22 10:33:00;;;;;;;;;;;;;;;;;;6093230;23;8895;-81
2022/08/22 10:35:26;;;;;;;;;;;;;;;;;;6069272;23;8434;-81
2022/08/22 10:38:24;;;;;;;;;;;;;;;;;;6069421;23;8474;-81
2022/08/22 10:40:49;;;;;;;;;;;;;;;;;;6006493;23;7164;-81
2022/08/22 10:43:18;;;;;;;;;;;;;;;;;;6069472;23;8612;-80
2022/08/22 10:45:46;;;;;;;;;;;;;;;;;;6069636;23;8483;-79
2022/08/22 10:48:19;;;;;;;;;;;;;;;;;;6092829;23;8448;-82
2022/08/22 10:50:49;;;;;;;;;;;;;;;;;;6093445;23;6928;-81
2022/08/22 10:53:29;;;;;;;;;;;;;;;;;;6093160;23;8497;-81
2022/08/22 10:56:03;;;;;;;;;;;;;;;;;;6093282;23;7176;-81
2022/08/22 10:58:34;;;;;;;;;;;;;;;;;;6093659;23;8598;-81
2022/08/22 11:01:03;;;;;;;;;;;;;;;;;;6093406;23;8735;-83
2022/08/22 11:03:35;;;;;;;;;;;;;;;;;;6093138;23;8913;-84
2022/08/22 11:06:05;;;;;;;;;;;;;;;;;;6069361;23;8505;-85
2022/08/22 11:08:49;;;;;;;;;;;;;;;;;;6093142;23;9322;-84
2022/08/22 11:11:18;;;;;;;;;;;;;;;;;;6070683;23;8530;-84
2022/08/22 11:14:16;;;;;;;;;;;;;;;;;;6070652;23;9225;-84
2022/08/22 11:17:08;;;;;;;;;;;;;;;;;;6009011;23;8502;-84
2022/08/22 11:19:52;;;;;;;;;;;;;;;;;;6093361;23;7093;-84
2022/08/22 11:22:24;;;;;;;;;;;;;;;;;;6068961;23;8748;-83
2022/08/22 11:25:09;;;;;;;;;;;;;;;;;;6068561;23;9413;-84
2022/08/22 11:27:46;;;;;;;;;;;;;;;;;;6069244;23;8414;-83
2022/08/22 11:30:16;;;;;;;;;;;;;;;;;;6068682;23;8443;-83
2022/08/22 11:32:56;;;;;;;;;;;;;;;;;;6092000;23;7376;-84
2022/08/22 11:35:25;;;;;;;;;;;;;;;;;;6068767;23;8398;-83
2022/08/22 11:38:02;;;;;;;;;;;;;;;;;;6092740;23;8405;-83
2022/08/22 11:40:37;;;;;;;;;;;;;;;;;;6092896;23;7367;-83
2022/08/22 11:43:29;;;;;;;;;;;;;;;;;;6068506;23;7286;-84
2022/08/22 11:45:58;;;;;;;;;;;;;;;;;;6092428;23;8467;-84
2022/08/22 11:48:23;;;;;;;;;;;;;;;;;;6092806;23;8497;-83
2022/08/22 11:50:57;;;;;;;;;;;;;;;;;;6068479;23;8641;-83
2022/08/22 11:53:22;;;;;;;;;;;;;;;;;;6092902;23;8444;-83
2022/08/22 11:55:48;;;;;;;;;;;;;;;;;;6068673;23;8417;-84
2022/08/22 11:58:14;;;;;;;;;;;;;;;;;;6068531;23;8488;-85
2022/08/22 12:00:39;;;;;;;;;;;;;;;;;;6068236;23;7065;-83
2022/08/22 12:03:04;;;;;;;;;;;;;;;;;;6068729;23;8528;-82
2022/08/22 12:05:43;;;;;;;;;;;;;;;;;;6068869;23;8545;-83
2022/08/22 12:08:29;;;;;;;;;;;;;;;;;;6091962;23;8483;-84
2022/08/22 12:11:02;;;;;;;;;;;;;;;;;;6010731;23;7164;-83
2022/08/22 12:13:39;;;;;;;;;;;;;;;;;;6092931;23;8456;-83
2022/08/22 12:16:22;;;;;;;;;;;;;;;;;;6091734;23;7204;-83
2022/08/22 12:18:48;;;;;;;;;;;;;;;;;;6092516;23;8766;-84
2022/08/22 12:21:14;;;;;;;;;;;;;;;;;;6068788;23;8795;-84
2022/08/22 12:23:58;;;;;;;;;;;;;;;;;;6067983;23;8484;-82
2022/08/22 12:26:24;;;;;;;;;;;;;;;;;;6068532;23;8417;-83
2022/08/22 12:29:08;;;;;;;;;;;;;;;;;;6068305;23;8418;-83
2022/08/22 12:31:39;;;;;;;;;;;;;;;;;;6067797;23;8502;-83
2022/08/22 12:34:25;;;;;;;;;;;;;;;;;;6068123;23;8480;-83
2022/08/22 12:36:54;;;;;;;;;;;;;;;;;;6048191;23;6860;-83
2022/08/22 12:39:38;;;;;;;;;;;;;;;;;;6068168;23;7303;-83
2022/08/22 12:42:06;;;;;;;;;;;;;;;;;;6068412;23;8515;-83
2022/08/22 12:44:32;;;;;;;;;;;;;;;;;;6068067;23;8487;-83
2022/08/22 12:46:57;;;;;;;;;;;;;;;;;;6068426;23;8507;-83
2022/08/22 12:49:29;;;;;;;;;;;;;;;;;;6068714;23;8369;-82
2022/08/22 12:52:30;;;;;;;;;;;;;;;;;;6067837;23;7119;-84
2022/08/22 12:55:24;;;;;;;;;;;;;;;;;;5958535;24;8511;-84
2022/08/22 12:57:50;;;;;;;;;;;;;;;;;;5958808;24;7141;-83
2022/08/22 13:00:30;;;;;;;;;;;;;;;;;;5958198;24;8468;-83
2022/08/22 13:03:01;;;;;;;;;;;;;;;;;;5958544;24;9214;-83
2022/08/22 13:05:28;;;;;;;;;;;;;;;;;;5958732;24;8566;-84
2022/08/22 13:07:58;;;;;;;;;;;;;;;;;;5958322;24;7053;-83
2022/08/22 13:10:27;;;;;;;;;;;;;;;;;;5958780;24;8739;-84
2022/08/22 13:12:57;;;;;;;;;;;;;;;;;;5958662;24;8952;-84
2022/08/22 13:15:34;;;;;;;;;;;;;;;;;;5957819;24;8431;-84
2022/08/22 13:18:02;;;;;;;;;;;;;;;;;;5958965;24;8786;-82
2022/08/22 13:20:32;;;;;;;;;;;;;;;;;;5958356;24;8831;-85
2022/08/22 13:23:00;;;;;;;;;;;;;;;;;;5958053;24;8697;-81
2022/08/22 13:25:29;;;;;;;;;;;;;;;;;;5958364;24;7226;-81
2022/08/22 13:28:02;;;;;;;;;;;;;;;;;;5966740;23;8490;-80
2022/08/22 13:30:34;;;;;;;;;;;;;;;;;;6092076;23;6868;-81
2022/08/22 13:33:08;;;;;;;;;;;;;;;;;;6092021;23;8555;-81
2022/08/22 13:35:47;;;;;;;;;;;;;;;;;;6092104;23;8865;-79
2022/08/22 13:38:19;;;;;;;;;;;;;;;;;;6091949;23;8770;-81
2022/08/22 13:40:50;;;;;;;;;;;;;;;;;;6092248;23;7222;-80
2022/08/22 13:43:25;;;;;;;;;;;;;;;;;;6091808;23;7012;-81
2022/08/22 13:45:53;;;;;;;;;;;;;;;;;;6091402;23;8532;-80
2022/08/22 13:48:21;;;;;;;;;;;;;;;;;;6091784;23;8390;-81
2022/08/22 13:51:02;;;;;;;;;;;;;;;;;;6092143;23;8853;-80
2022/08/22 13:53:28;;;;;;;;;;;;;;;;;;6092034;23;7262;-81
2022/08/22 13:56:11;;;;;;;;;;;;;;;;;;6068726;23;9450;-81
2022/08/22 13:58:40;;;;;;;;;;;;;;;;;;6093275;23;8623;-82
2022/08/22 14:01:06;;;;;;;;;;;;;;;;;;6093903;23;6891;-85
2022/08/22 14:03:45;;;;;;;;;;;;;;;;;;6069527;23;7034;-83
2022/08/22 14:06:29;;;;;;;;;;;;;;;;;;6093259;23;9089;-83
2022/08/22 14:08:59;;;;;;;;;;;;;;;;;;6069718;23;8447;-83
2022/08/22 14:11:36;;;;;;;;;;;;;;;;;;6093531;23;8529;-82
2022/08/22 14:14:05;;;;;;;;;;;;;;;;;;6093708;23;8675;-83
2022/08/22 14:16:37;;;;;;;;;;;;;;;;;;6094073;23;8674;-85
2022/08/22 14:19:21;;;;;;;;;;;;;;;;;;6093937;23;8431;-81
2022/08/22 14:21:54;;;;;;;;;;;;;;;;;;6093751;23;7472;-83
2022/08/22 14:24:24;;;;;;;;;;;;;;;;;;6093952;23;8809;-82
2022/08/22 14:26:56;;;;;;;;;;;;;;;;;;6094330;23;8854;-80
2022/08/22 14:29:25;;;;;;;;;;;;;;;;;;6069036;23;8646;-81
2022/08/22 14:31:58;;;;;;;;;;;;;;;;;;6092194;23;8546;-80
2022/08/22 14:34:26;;;;;;;;;;;;;;;;;;6093623;23;8393;-80
2022/08/22 14:37:06;;;;;;;;;;;;;;;;;;6092860;23;8801;-81
2022/08/22 14:39:32;;;;;;;;;;;;;;;;;;6093354;23;8832;-80
2022/08/22 14:42:08;;;;;;;;;;;;;;;;;;6069367;23;8542;-81
2022/08/22 14:44:42;;;;;;;;;;;;;;;;;;6093724;23;8538;-81
2022/08/22 14:47:17;;;;;;;;;;;;;;;;;;6094017;23;8461;-80
2022/08/22 14:49:59;;;;;;;;;;;;;;;;;;6093750;23;7070;-80
2022/08/22 14:52:28;;;;;;;;;;;;;;;;;;6093682;23;8813;-82
2022/08/22 14:55:15;;;;;;;;;;;;;;;;;;6093895;23;8447;-81
2022/08/22 14:57:59;;;;;;;;;;;;;;;;;;6094121;23;8463;-80
2022/08/22 15:00:44;;;;;;;;;;;;;;;;;;6093621;23;8806;-81
2022/08/22 15:03:22;;;;;;;;;;;;;;;;;;6061954;23;8462;-76
2022/08/22 15:05:53;;;;;;;;;;;;;;;;;;6092283;23;8762;-81
2022/08/22 15:08:29;;;;;;;;;;;;;;;;;;6091579;23;8827;-84
2022/08/22 15:11:06;;;;;;;;;;;;;;;;;;6093748;23;8979;-83
2022/08/22 15:13:34;;;;;;;;;;;;;;;;;;6093138;23;8459;-80
2022/08/22 15:16:12;;;;;;;;;;;;;;;;;;6093411;23;8872;-80
2022/08/22 15:18:38;;;;;;;;;;;;;;;;;;6093610;23;7152;-80
2022/08/22 15:21:09;;;;;;;;;;;;;;;;;;6093285;23;8888;-79
2022/08/22 15:23:38;;;;;;;;;;;;;;;;;;6093500;23;9044;-79
2022/08/22 15:26:07;;;;;;;;;;;;;;;;;;6093438;23;7221;-80
2022/08/22 15:28:35;;;;;;;;;;;;;;;;;;6093158;23;8586;-80
2022/08/22 15:31:03;;;;;;;;;;;;;;;;;;6093468;23;8513;-80
2022/08/22 15:33:31;;;;;;;;;;;;;;;;;;6069813;23;8566;-79
2022/08/22 15:36:15;;;;;;;;;;;;;;;;;;6068679;23;8621;-79
2022/08/22 15:38:43;;;;;;;;;;;;;;;;;;6093530;23;7469;-80
2022/08/22 15:41:35;;;;;;;;;;;;;;;;;;6093179;23;8738;-80
2022/08/22 15:44:23;;;;;;;;;;;;;;;;;;6025219;23;8602;-80
2022/08/22 15:46:51;;;;;;;;;;;;;;;;;;6093225;23;8840;-80
2022/08/22 15:49:20;;;;;;;;;;;;;;;;;;6069595;23;7127;-80
2022/08/22 15:51:57;;;;;;;;;;;;;;;;;;6068869;23;8485;-85
2022/08/22 15:54:27;;;;;;;;;;;;;;;;;;6069605;23;8495;-85
2022/08/22 15:56:54;;;;;;;;;;;;;;;;;;6092907;23;8471;-83
2022/08/22 15:59:20;;;;;;;;;;;;;;;;;;6068947;23;8574;-84
2022/08/22 16:01:51;;;;;;;;;;;;;;;;;;6068962;23;9321;-85
2022/08/22 16:04:30;;;;;;;;;;;;;;;;;;6092643;23;7183;-83
2022/08/22 16:07:00;;;;;;;;;;;;;;;;;;6093166;23;8684;-84
2022/08/22 16:09:41;;;;;;;;;;;;;;;;;;6093437;23;9396;-84
2022/08/22 16:12:29;;;;;;;;;;;;;;;;;;6093381;23;8680;-80
2022/08/22 16:14:56;;;;;;;;;;;;;;;;;;6093658;23;7419;-86
2022/08/22 16:17:24;;;;;;;;;;;;;;;;;;6093338;23;8497;-83
2022/08/22 16:20:08;;;;;;;;;;;;;;;;;;6068152;23;8497;-83
2022/08/22 16:22:52;;;;;;;;;;;;;;;;;;6069282;23;8449;-83
2022/08/22 16:25:18;;;;;;;;;;;;;;;;;;6069026;23;8474;-84
2022/08/22 16:27:54;;;;;;;;;;;;;;;;;;6092517;23;8473;-83
2022/08/22 16:30:31;;;;;;;;;;;;;;;;;;6093090;23;8396;-83
2022/08/22 16:32:58;;;;;;;;;;;;;;;;;;6092615;23;7235;-84
2022/08/22 16:35:44;;;;;;;;;;;;;;;;;;6094376;23;8575;-83
2022/08/22 16:38:20;;;;;;;;;;;;;;;;;;6090995;23;8826;-82
2022/08/22 16:40:47;;;;;;;;;;;;;;;;;;6067143;23;7842;-83
2022/08/22 16:43:18;;;;;;;;;;;;;;;;;;6092076;23;7112;-84
2022/08/22 16:45:44;;;;;;;;;;;;;;;;;;6092496;23;8478;-83
2022/08/22 16:48:34;;;;;;;;;;;;;;;;;;6092481;23;8527;-83
2022/08/22 16:51:09;;;;;;;;;;;;;;;;;;6053400;23;8477;-85
2022/08/22 16:53:37;;;;;;;;;;;;;;;;;;6092520;23;8444;-85
2022/08/22 16:56:21;;;;;;;;;;;;;;;;;;6067981;23;8490;-84
2022/08/22 16:59:04;;;;;;;;;;;;;;;;;;6092591;23;8451;-85
2022/08/22 17:01:52;;;;;;;;;;;;;;;;;;6092632;23;8799;-84
2022/08/22 17:04:20;;;;;;;;;;;;;;;;;;6091461;23;7216;-84
2022/08/22 17:07:25;;;;;;;;;;;;;;;;;;6066068;23;8471;-83
2022/08/22 17:09:50;;;;;;;;;;;;;;;;;;5958747;24;8835;-83
2022/08/22 17:12:21;;;;;;;;;;;;;;;;;;5958293;24;8751;-83
2022/08/22 17:15:02;;;;;;;;;;;;;;;;;;5959293;24;7058;-83
2022/08/22 17:17:46;;;;;;;;;;;;;;;;;;5959210;24;8677;-83
2022/08/22 17:20:12;;;;;;;;;;;;;;;;;;5959194;24;8917;-82
2022/08/22 17:22:43;;;;;;;;;;;;;;;;;;5959354;24;8766;-82
2022/08/22 17:25:29;;;;;;;;;;;;;;;;;;5959192;24;8629;-83
2022/08/22 17:28:03;;;;;;;;;;;;;;;;;;5967593;24;8415;-84
2022/08/22 17:30:55;;;;;;;;;;;;;;;;;;5959977;24;8635;-84
2022/08/22 17:33:34;;;;;;;;;;;;;;;;;;5982006;24;8490;-84
2022/08/22 17:36:05;;;;;;;;;;;;;;;;;;5961176;24;8498;-83
2022/08/22 17:38:31;;;;;;;;;;;;;;;;;;5961335;24;8936;-82
2022/08/22 17:41:02;;;;;;;;;;;;;;;;;;6030564;23;8405;-82
2022/08/22 17:43:39;;;;;;;;;;;;;;;;;;6070328;23;8910;-83
2022/08/22 17:46:20;;;;;;;;;;;;;;;;;;6094671;23;7184;-83
2022/08/22 17:49:02;;;;;;;;;;;;;;;;;;6094010;23;8482;-83
2022/08/22 17:51:34;;;;;;;;;;;;;;;;;;6094747;23;8655;-83
2022/08/22 17:54:15;;;;;;;;;;;;;;;;;;6094471;23;8467;-82
2022/08/22 17:56:43;;;;;;;;;;;;;;;;;;6093879;23;8659;-83
2022/08/22 17:59:19;;;;;;;;;;;;;;;;;;6070366;23;8745;-82
2022/08/22 18:01:52;;;;;;;;;;;;;;;;;;6094379;23;8476;-83